気象予報士の航空気象 午後のWS

*All archives   *Admin

スポンサーサイト

上記の広告は1ヶ月以上更新のないブログに表示されています。
新しい記事を書く事で広告が消せます。
--:--  |  スポンサー広告  |  EDIT  |  Top↑

2010.03.31 (Wed)

午後のWS

RJAA 310630Z 23014KT 9999 FEW045 BKN100 14/03 Q1022 WS R16R WS R16L TEMPO 22015G26KT RMK 1SC045 7AS100 A3018


午後、成田では接地層で気流が乱れて、離着陸が大変だったようです。


12時過ぎから午後8時にかけて、METARに WS が通報され続けました。


風向きは南西。


高気圧の後面に沿って吹き込む風のようです。


明日から気圧傾度が大きい場所において、低気圧が発生し、発達しながら日本に接近するようです。


また、嵐の予感。


 
ブログランキングに参加しています。
にほんブログ村 環境ブログ 天気・気象学へ
にほんブログ村
応援クリックをおねがします。


以下、アフィリエイトサイトです。




スポンサーサイト
22:10  |  気象・天気  |  TB(0)  |  CM(0)  |  EDIT  |  Top↑

コメントを投稿する


 管理者だけに表示  (非公開コメント投稿可能)

▲PageTop

この記事のトラックバックURL

→http://weathereucalyptus.blog115.fc2.com/tb.php/440-aa34a942
この記事にトラックバックする(FC2ブログユーザー)

この記事へのトラックバック

▲PageTop

 | BLOGTOP | 
上記広告は1ヶ月以上更新のないブログに表示されています。新しい記事を書くことで広告を消せます。